Open Full Screen Window  High Contrast Mode
Wind Gusting 00 knots
05
July 03, 2015 8:17 AM EDT
Weather Information
Wind Direction
  090 °
Wind Speed
  05 kt (6 mph)
Wind Gust
  00 kt (0 mph)
Altimeter
30.00 in
Visibility
10 SM
Temperature
16° C
61° F
Dewpoint
12° C
54° F
Humidity
77%
1hr Rain Fall
00.00 in.
24hr Rain Fall
00.00 in.
Sky Condition
Clear
VFR

METAR KPOV 031217Z AUTO 09005KT 10SM CLR 16/12 A3000 RMK AO2 T01560115

*Background is not an actual portrayal of the airport.